createdAt,value
2023-03-21T00:00:43.084Z,8.80
2023-03-21T00:03:09.752Z,8.84
2023-03-21T00:05:43.410Z,8.63
2023-03-21T00:08:10.168Z,8.74
2023-03-21T00:10:41.528Z,8.72
2023-03-21T00:13:15.782Z,8.61
2023-03-21T00:15:54.093Z,8.60
2023-03-21T00:18:30.221Z,8.70
2023-03-21T00:21:33.782Z,8.87
2023-03-21T00:23:48.494Z,8.88
2023-03-21T00:26:15.538Z,8.88
2023-03-21T00:28:43.961Z,8.88
2023-03-21T00:31:10.987Z,8.90
2023-03-21T00:33:37.831Z,8.87
2023-03-21T00:36:05.886Z,9.04
2023-03-21T00:38:32.867Z,9.04
2023-03-21T00:41:04.694Z,8.85
2023-03-21T00:43:35.636Z,8.83
2023-03-21T00:46:02.385Z,8.89
2023-03-21T00:48:29.680Z,8.89
2023-03-21T00:50:57.824Z,9.12
2023-03-21T00:53:24.475Z,8.97
2023-03-21T00:55:51.121Z,8.91
2023-03-21T00:58:18.159Z,8.74
2023-03-21T01:00:47.968Z,8.55
2023-03-21T01:03:24.522Z,8.55
2023-03-21T01:05:52.702Z,8.38
2023-03-21T01:08:28.029Z,8.51
2023-03-21T01:11:02.513Z,8.27
2023-03-21T01:13:29.185Z,8.42
2023-03-21T01:15:56.912Z,8.22
2023-03-21T01:18:27.298Z,8.37
2023-03-21T01:20:56.771Z,8.54
2023-03-21T01:23:23.992Z,8.61
2023-03-21T01:25:53.630Z,8.50
2023-03-21T01:28:20.662Z,8.18
2023-03-21T01:30:51.510Z,8.12
2023-03-21T01:33:19.426Z,7.97
2023-03-21T01:35:55.201Z,8.08
2023-03-21T01:38:27.451Z,8.27
2023-03-21T01:40:54.191Z,8.20
2023-03-21T01:43:27.605Z,8.20
2023-03-21T01:46:27.362Z,8.18
2023-03-21T01:49:03.213Z,8.40
2023-03-21T01:51:34.646Z,7.80
2023-03-21T01:54:02.028Z,7.90
2023-03-21T01:56:35.172Z,7.93
2023-03-21T01:59:11.654Z,8.05
2023-03-21T02:01:39.695Z,7.61
2023-03-21T02:04:06.435Z,7.83
2023-03-21T02:06:46.644Z,7.72
2023-03-21T02:09:18.713Z,7.75
2023-03-21T02:11:46.719Z,7.85
2023-03-21T02:14:28.310Z,8.03
2023-03-21T02:16:58.284Z,8.10
2023-03-21T02:19:53.121Z,7.28
2023-03-21T02:22:29.347Z,7.26
2023-03-21T02:25:06.184Z,7.26
2023-03-21T02:28:12.463Z,7.29
2023-03-21T02:30:57.688Z,7.38
2023-03-21T02:33:43.216Z,7.66
2023-03-21T02:36:27.042Z,7.76
2023-03-21T02:39:06.707Z,7.75
2023-03-21T02:41:53.357Z,7.81
2023-03-21T02:44:27.293Z,7.86
2023-03-21T02:47:27.096Z,7.91
2023-03-21T02:50:12.588Z,8.02
2023-03-21T02:52:40.768Z,8.10
2023-03-21T02:55:15.336Z,8.24
2023-03-21T02:57:44.399Z,8.46
2023-03-21T03:00:17.693Z,8.45
2023-03-21T03:02:45.550Z,8.34
2023-03-21T03:05:21.757Z,8.39
2023-03-21T03:08:06.564Z,8.35
2023-03-21T03:10:51.756Z,8.42
2023-03-21T03:13:50.430Z,8.63
2023-03-21T03:16:43.475Z,8.55
2023-03-21T03:19:28.006Z,8.56
2023-03-21T03:22:13.202Z,8.78
2023-03-21T03:24:50.763Z,8.64
2023-03-21T03:27:24.289Z,8.41
2023-03-21T03:29:52.958Z,8.31
2023-03-21T03:32:47.545Z,8.55
2023-03-21T03:35:18.173Z,8.86
2023-03-21T03:37:51.615Z,8.63
2023-03-21T03:40:31.509Z,8.58
2023-03-21T03:43:08.499Z,8.45
2023-03-21T03:45:58.974Z,8.51
2023-03-21T03:48:37.205Z,8.53
2023-03-21T03:51:16.376Z,8.61
2023-03-21T03:53:51.162Z,8.43
2023-03-21T03:56:18.336Z,8.53
2023-03-21T03:58:46.195Z,8.36
2023-03-21T04:01:13.363Z,8.29
2023-03-21T04:03:50.276Z,8.42
2023-03-21T04:06:19.338Z,8.37
2023-03-21T04:08:46.205Z,8.40
2023-03-21T04:11:14.656Z,8.21
2023-03-21T04:13:41.955Z,8.18
2023-03-21T04:16:10.145Z,8.07
2023-03-21T04:18:37.215Z,8.14
2023-03-21T04:21:08.080Z,8.26
2023-03-21T04:23:34.679Z,8.15
2023-03-21T04:26:01.483Z,8.33
2023-03-21T04:28:28.062Z,8.22
2023-03-21T04:31:03.780Z,8.27
2023-03-21T04:33:35.384Z,8.33
2023-03-21T04:36:02.121Z,8.26
2023-03-21T04:38:28.765Z,8.29
2023-03-21T04:40:55.410Z,8.21
2023-03-21T04:43:22.182Z,8.14
2023-03-21T04:45:48.949Z,8.27
2023-03-21T04:48:15.734Z,8.31
2023-03-21T04:50:42.361Z,8.16
2023-03-21T04:53:09.208Z,8.05
2023-03-21T04:55:36.048Z,8.08
2023-03-21T04:58:04.033Z,8.16
2023-03-21T05:00:30.962Z,8.11
2023-03-21T05:02:58.036Z,8.11
2023-03-21T05:05:25.090Z,8.22
2023-03-21T05:07:51.710Z,8.36
2023-03-21T05:10:18.368Z,8.28
2023-03-21T05:12:45.352Z,8.21
2023-03-21T05:15:12.048Z,8.11
2023-03-21T05:17:38.720Z,8.16
2023-03-21T05:20:06.210Z,8.19
2023-03-21T05:22:32.834Z,8.37
2023-03-21T05:24:59.465Z,8.50
2023-03-21T05:27:26.122Z,8.18
2023-03-21T05:29:52.720Z,7.82
2023-03-21T05:32:19.384Z,7.67
2023-03-21T05:34:46.035Z,7.86
2023-03-21T05:37:12.969Z,8.08
2023-03-21T05:39:39.643Z,8.11
2023-03-21T05:42:06.266Z,8.30
2023-03-21T05:44:32.890Z,8.53
2023-03-21T05:46:59.499Z,8.54
2023-03-21T05:49:26.228Z,8.75
2023-03-21T05:51:52.854Z,8.76
2023-03-21T05:54:19.487Z,8.59
2023-03-21T05:56:46.133Z,8.78
2023-03-21T05:59:13.182Z,8.86
2023-03-21T06:01:39.798Z,9.11
2023-03-21T06:04:06.469Z,9.22
2023-03-21T06:06:34.953Z,9.17
2023-03-21T06:09:01.791Z,8.84
2023-03-21T06:11:34.168Z,9.13
2023-03-21T06:14:00.761Z,8.98
2023-03-21T06:16:28.006Z,8.95
2023-03-21T06:18:55.464Z,9.04
2023-03-21T06:21:23.071Z,8.99
2023-03-21T06:23:50.479Z,8.93
2023-03-21T06:26:17.966Z,9.25
2023-03-21T06:28:44.588Z,9.12
2023-03-21T06:31:11.366Z,9.23
2023-03-21T06:33:38.057Z,9.39
2023-03-21T06:36:04.889Z,9.70
2023-03-21T06:38:31.705Z,9.62
2023-03-21T06:40:58.475Z,9.78
2023-03-21T06:43:25.139Z,9.88
2023-03-21T06:45:51.746Z,10.01
2023-03-21T06:48:18.382Z,10.39
2023-03-21T06:50:45.172Z,10.41
2023-03-21T06:53:11.826Z,10.54
2023-03-21T06:55:38.721Z,10.52
2023-03-21T06:58:05.567Z,10.59
2023-03-21T07:00:32.672Z,10.62
2023-03-21T07:02:59.660Z,10.67
2023-03-21T07:05:26.426Z,10.67
2023-03-21T07:07:53.067Z,10.65
2023-03-21T07:10:19.825Z,10.90
2023-03-21T07:12:46.516Z,10.82
2023-03-21T07:15:13.201Z,10.98
2023-03-21T07:17:39.820Z,11.01
2023-03-21T07:20:06.910Z,10.89
2023-03-21T07:22:33.546Z,10.85
2023-03-21T07:25:05.228Z,10.99
2023-03-21T07:27:32.254Z,11.18
2023-03-21T07:29:58.962Z,11.08
2023-03-21T07:32:25.555Z,11.28
2023-03-21T07:34:52.241Z,11.42
2023-03-21T07:37:18.828Z,11.62
2023-03-21T07:39:45.747Z,11.70
2023-03-21T07:42:12.406Z,11.60
2023-03-21T07:44:39.057Z,11.67
2023-03-21T07:47:06.353Z,11.81
2023-03-21T07:49:33.230Z,11.93
2023-03-21T07:52:00.283Z,12.09
2023-03-21T07:54:26.933Z,11.99
2023-03-21T07:56:53.518Z,11.88
2023-03-21T07:59:20.310Z,12.12
2023-03-21T08:01:46.908Z,12.13
2023-03-21T08:04:13.574Z,12.23
2023-03-21T08:06:40.387Z,12.25
2023-03-21T08:09:07.960Z,12.63
2023-03-21T08:11:34.711Z,12.55
2023-03-21T08:14:01.624Z,12.85
2023-03-21T08:16:28.356Z,12.99
2023-03-21T08:18:55.005Z,13.03
2023-03-21T08:21:21.646Z,13.32
2023-03-21T08:23:48.288Z,13.35
2023-03-21T08:26:15.038Z,13.63
2023-03-21T08:28:41.652Z,13.55
2023-03-21T08:31:10.464Z,13.55
2023-03-21T08:33:37.352Z,13.47
2023-03-21T08:36:05.985Z,13.50
2023-03-21T08:38:33.387Z,13.79
2023-03-21T08:41:00.699Z,13.81
2023-03-21T08:43:28.465Z,13.80
2023-03-21T08:45:56.433Z,13.77
2023-03-21T08:48:23.361Z,13.92
2023-03-21T08:50:50.121Z,14.34
2023-03-21T08:53:16.765Z,13.96
2023-03-21T08:55:44.175Z,13.94
2023-03-21T08:58:10.818Z,13.97
2023-03-21T09:00:37.566Z,14.11
2023-03-21T09:03:04.230Z,14.14
2023-03-21T09:05:30.991Z,14.16
2023-03-21T09:07:57.639Z,14.60
2023-03-21T09:10:24.325Z,14.65
2023-03-21T09:12:52.809Z,14.45
2023-03-21T09:15:20.609Z,14.58
2023-03-21T09:17:47.756Z,14.74
2023-03-21T09:20:15.927Z,14.88
2023-03-21T09:22:42.947Z,15.11
2023-03-21T09:25:09.743Z,15.22
2023-03-21T09:27:37.015Z,14.53
2023-03-21T09:30:04.933Z,14.97
2023-03-21T09:32:31.576Z,15.11
2023-03-21T09:34:58.155Z,14.77
2023-03-21T09:37:24.772Z,14.58
2023-03-21T09:39:51.409Z,14.93
2023-03-21T09:42:41.837Z,15.24
2023-03-21T09:45:30.091Z,15.55
2023-03-21T09:47:57.517Z,15.31
2023-03-21T09:50:30.436Z,14.99
2023-03-21T09:53:01.273Z,14.62
2023-03-21T09:55:31.687Z,14.35
2023-03-21T09:58:16.178Z,14.44
2023-03-21T10:00:45.723Z,14.59
2023-03-21T10:03:33.175Z,14.50
2023-03-21T10:06:01.082Z,14.65
2023-03-21T10:08:32.301Z,14.72
2023-03-21T10:11:02.985Z,14.94
2023-03-21T10:13:33.961Z,15.07
2023-03-21T10:16:09.614Z,15.45
2023-03-21T10:18:36.669Z,15.54
2023-03-21T10:21:05.390Z,15.52
2023-03-21T10:23:32.046Z,15.74
2023-03-21T10:26:03.475Z,15.88
2023-03-21T10:31:28.173Z,15.87
2023-03-21T10:33:58.749Z,16.08
2023-03-21T10:36:31.579Z,15.81
2023-03-21T10:39:07.422Z,15.90
2023-03-21T10:41:34.679Z,15.83
2023-03-21T10:44:11.956Z,15.88
2023-03-21T10:46:38.817Z,15.85
2023-03-21T10:49:08.401Z,15.91
2023-03-21T10:51:37.632Z,15.98
2023-03-21T10:54:16.364Z,16.34
2023-03-21T10:56:58.054Z,16.11
2023-03-21T10:59:28.093Z,16.29
2023-03-21T11:01:57.237Z,16.40
2023-03-21T11:04:29.721Z,16.48
2023-03-21T11:07:03.732Z,16.53
2023-03-21T11:09:54.259Z,16.44
2023-03-21T11:12:32.768Z,16.61
2023-03-21T11:15:38.575Z,16.57
2023-03-21T11:18:34.549Z,16.54
2023-03-21T11:21:07.607Z,16.58
2023-03-21T11:23:37.608Z,16.61
2023-03-21T11:26:11.226Z,16.56
2023-03-21T11:28:40.685Z,16.67
2023-03-21T11:31:08.474Z,16.80
2023-03-21T11:33:55.315Z,16.78
2023-03-21T11:36:21.959Z,16.91
2023-03-21T11:38:54.802Z,16.78
2023-03-21T11:41:42.066Z,16.85
2023-03-21T11:44:26.634Z,16.75
2023-03-21T11:46:54.402Z,16.79
2023-03-21T11:49:22.026Z,17.15
2023-03-21T11:52:00.569Z,17.43
2023-03-21T11:54:51.619Z,16.96
2023-03-21T11:57:35.634Z,16.85
2023-03-21T12:00:21.491Z,17.02
2023-03-21T12:03:17.819Z,16.89
2023-03-21T12:05:53.984Z,16.33
2023-03-21T12:08:24.586Z,16.70
2023-03-21T12:10:59.380Z,16.23
2023-03-21T12:13:38.701Z,15.80
2023-03-21T12:16:40.740Z,15.56
2023-03-21T12:19:34.490Z,15.73
2023-03-21T12:22:01.112Z,16.20
2023-03-21T12:24:57.153Z,16.32
2023-03-21T12:27:44.692Z,16.39
2023-03-21T12:30:52.957Z,16.21
2023-03-21T12:33:34.573Z,16.66
2023-03-21T12:36:07.384Z,16.36
2023-03-21T12:38:55.134Z,15.93
2023-03-21T12:42:00.835Z,15.47
2023-03-21T12:44:32.344Z,15.24
2023-03-21T12:47:06.537Z,15.07
2023-03-21T12:49:39.832Z,15.08
2023-03-21T12:52:14.331Z,14.97
2023-03-21T12:54:51.111Z,15.08
2023-03-21T12:57:23.325Z,15.35
2023-03-21T12:59:59.242Z,15.29
2023-03-21T13:02:57.422Z,15.23
2023-03-21T13:05:23.938Z,15.45
2023-03-21T13:07:57.094Z,15.79
2023-03-21T13:10:24.072Z,16.17
2023-03-21T13:13:33.629Z,16.33
2023-03-21T13:16:09.271Z,16.65
2023-03-21T13:18:40.746Z,16.97
2023-03-21T13:21:36.463Z,17.18
2023-03-21T13:24:18.017Z,16.36
2023-03-21T13:26:49.134Z,16.25
2023-03-21T13:30:06.467Z,15.99
2023-03-21T13:32:39.758Z,15.86
2023-03-21T13:35:20.002Z,15.86
2023-03-21T13:37:58.557Z,15.48
2023-03-21T13:40:37.439Z,15.13
2023-03-21T13:43:04.513Z,15.27
2023-03-21T13:45:44.175Z,15.04
2023-03-21T13:48:59.969Z,15.00
2023-03-21T13:51:46.260Z,15.22
2023-03-21T13:54:17.258Z,14.98
2023-03-21T13:56:46.764Z,15.12
2023-03-21T13:59:19.897Z,15.50
2023-03-21T14:02:04.318Z,16.13
2023-03-21T14:04:41.892Z,16.59
2023-03-21T14:07:22.678Z,16.52
2023-03-21T14:09:52.605Z,16.23
2023-03-21T14:12:30.206Z,15.92
2023-03-21T14:15:16.815Z,15.61
2023-03-21T14:18:28.089Z,15.38
2023-03-21T14:21:07.027Z,15.26
2023-03-21T14:23:38.842Z,15.42
2023-03-21T14:26:06.385Z,15.18
2023-03-21T14:28:33.643Z,15.57
2023-03-21T14:31:01.366Z,15.78
2023-03-21T14:33:41.358Z,16.06
2023-03-21T14:36:14.764Z,16.09
2023-03-21T14:38:41.400Z,16.20
2023-03-21T14:41:28.303Z,16.11
2023-03-21T14:44:11.613Z,16.01
2023-03-21T14:46:39.437Z,16.21
2023-03-21T14:49:29.510Z,16.16
2023-03-21T14:52:00.462Z,16.35
2023-03-21T14:54:28.688Z,16.81
2023-03-21T14:57:03.952Z,16.36
2023-03-21T14:59:37.007Z,16.36
2023-03-21T15:02:16.334Z,15.88
2023-03-21T15:04:50.663Z,15.50
2023-03-21T15:07:25.674Z,15.50
2023-03-21T15:09:57.518Z,15.84
2023-03-21T15:12:24.374Z,15.78
2023-03-21T15:14:51.378Z,15.49
2023-03-21T15:17:19.367Z,15.87
2023-03-21T15:19:46.197Z,15.57
2023-03-21T15:22:25.890Z,15.77
2023-03-21T15:25:01.231Z,16.09
2023-03-21T15:27:32.865Z,16.42
2023-03-21T15:29:59.680Z,15.67
2023-03-21T15:32:28.802Z,15.96
2023-03-21T15:35:05.607Z,15.63
2023-03-21T15:37:35.707Z,15.55
2023-03-21T15:40:15.036Z,15.82
2023-03-21T15:42:41.977Z,15.58
2023-03-21T15:45:21.250Z,15.85
2023-03-21T15:47:52.025Z,15.49
2023-03-21T15:50:38.425Z,15.20
2023-03-21T15:53:11.644Z,15.48
2023-03-21T15:55:56.288Z,15.61
2023-03-21T15:58:26.319Z,15.05
2023-03-21T16:00:55.747Z,14.93
2023-03-21T16:03:41.797Z,15.13
2023-03-21T16:06:21.241Z,14.94
2023-03-21T16:08:49.515Z,14.81
2023-03-21T16:11:16.145Z,14.80
2023-03-21T16:13:42.908Z,14.77
2023-03-21T16:16:20.495Z,14.74
2023-03-21T16:18:47.400Z,14.58
2023-03-21T16:21:16.435Z,14.46
2023-03-21T16:23:43.140Z,14.59
2023-03-21T16:26:12.302Z,14.88
2023-03-21T16:28:39.034Z,14.09
2023-03-21T16:31:05.845Z,13.99
2023-03-21T16:33:32.486Z,13.91
2023-03-21T16:35:59.190Z,14.02
2023-03-21T16:38:25.945Z,14.11
2023-03-21T16:40:52.584Z,13.80
2023-03-21T16:43:19.407Z,13.66
2023-03-21T16:45:46.020Z,13.71
2023-03-21T16:48:12.803Z,13.60
2023-03-21T16:50:45.299Z,13.76
2023-03-21T16:53:11.959Z,13.51
2023-03-21T16:55:38.799Z,13.48
2023-03-21T16:58:05.800Z,13.27
2023-03-21T17:00:33.003Z,13.34
2023-03-21T17:03:02.112Z,13.84
2023-03-21T17:05:29.692Z,13.47
2023-03-21T17:07:56.795Z,13.36
2023-03-21T17:10:26.535Z,13.31
2023-03-21T17:12:54.099Z,13.29
2023-03-21T17:15:21.676Z,13.20
2023-03-21T17:17:49.163Z,13.28
2023-03-21T17:20:24.186Z,13.53
2023-03-21T17:22:51.013Z,13.24
2023-03-21T17:25:19.083Z,12.83
2023-03-21T17:27:46.621Z,12.90
2023-03-21T17:30:33.182Z,13.00
2023-03-21T17:33:00.300Z,12.61
2023-03-21T17:35:27.820Z,12.57
2023-03-21T17:37:54.847Z,12.53
2023-03-21T17:40:25.265Z,12.48
2023-03-21T17:42:52.535Z,12.57
2023-03-21T17:45:20.195Z,12.66
2023-03-21T17:47:46.859Z,12.76
2023-03-21T17:50:17.431Z,12.59
2023-03-21T17:52:44.112Z,12.25
2023-03-21T17:55:10.949Z,12.38
2023-03-21T17:57:37.626Z,12.00
2023-03-21T18:00:12.052Z,11.99
2023-03-21T18:02:39.984Z,12.05
2023-03-21T18:05:07.942Z,12.23
2023-03-21T18:08:04.453Z,12.06
2023-03-21T18:10:26.562Z,12.15
2023-03-21T18:12:53.530Z,12.18
2023-03-21T18:15:20.230Z,12.00
2023-03-21T18:17:47.629Z,11.83
2023-03-21T18:20:17.008Z,11.75
2023-03-21T18:22:44.527Z,12.03
2023-03-21T18:25:12.547Z,12.50
2023-03-21T18:28:02.075Z,12.64
2023-03-21T18:30:47.683Z,12.64
2023-03-21T18:33:14.411Z,12.62
2023-03-21T18:35:41.121Z,12.27
2023-03-21T18:38:07.982Z,11.82
2023-03-21T18:40:34.780Z,11.98
2023-03-21T18:43:59.211Z,11.99
2023-03-21T18:45:48.617Z,12.15
2023-03-21T18:48:15.290Z,11.67
2023-03-21T18:50:42.224Z,12.11
2023-03-21T18:53:08.871Z,12.07
2023-03-21T18:55:45.935Z,12.31
2023-03-21T18:58:14.620Z,12.12
2023-03-21T19:00:42.147Z,12.03
2023-03-21T19:03:21.727Z,12.26
2023-03-21T19:06:00.468Z,12.19
2023-03-21T19:08:27.170Z,12.08
2023-03-21T19:10:54.016Z,11.90
2023-03-21T19:13:20.651Z,11.80
2023-03-21T19:15:49.575Z,11.64
2023-03-21T19:21:03.614Z,11.60
2023-03-21T19:23:40.819Z,11.56
2023-03-21T19:26:16.889Z,11.51
2023-03-21T19:28:43.524Z,11.49
2023-03-21T19:31:10.168Z,11.37
2023-03-21T19:33:36.842Z,11.30
2023-03-21T19:36:17.570Z,11.28
2023-03-21T19:38:47.789Z,11.05
2023-03-21T19:41:14.470Z,11.02
2023-03-21T19:43:52.795Z,11.08
2023-03-21T19:46:20.746Z,10.92
2023-03-21T19:48:47.401Z,11.03
2023-03-21T19:51:27.473Z,10.94
2023-03-21T19:53:55.144Z,10.59
2023-03-21T19:56:26.275Z,10.50
2023-03-21T19:58:54.210Z,10.73
2023-03-21T20:01:20.891Z,10.64
2023-03-21T20:03:47.632Z,10.78
2023-03-21T20:06:14.483Z,10.87
2023-03-21T20:11:27.904Z,10.40
2023-03-21T20:13:54.587Z,10.35
2023-03-21T20:16:21.485Z,10.47
2023-03-21T20:18:48.172Z,10.44
2023-03-21T20:21:17.885Z,10.35
2023-03-21T20:23:48.185Z,10.36
2023-03-21T20:26:15.182Z,10.29
2023-03-21T20:28:55.916Z,10.21
2023-03-21T20:31:28.565Z,10.42
2023-03-21T20:33:55.338Z,9.99
2023-03-21T20:39:08.827Z,9.91
2023-03-21T20:41:35.429Z,9.98
2023-03-21T20:46:48.782Z,9.86
2023-03-21T20:49:15.633Z,9.69
2023-03-21T20:52:40.863Z,9.73
2023-03-21T20:54:29.273Z,9.97
2023-03-21T20:56:55.912Z,10.01
2023-03-21T20:59:27.287Z,9.87
2023-03-21T21:01:55.680Z,9.78
2023-03-21T21:04:41.199Z,9.61
2023-03-21T21:07:12.688Z,9.64
2023-03-21T21:09:39.531Z,9.73
2023-03-21T21:12:07.799Z,9.89
2023-03-21T21:14:35.617Z,9.93
2023-03-21T21:17:07.667Z,9.84
2023-03-21T21:19:39.252Z,9.70
2023-03-21T21:22:05.929Z,9.64
2023-03-21T21:24:32.597Z,9.51
2023-03-21T21:26:59.345Z,9.55
2023-03-21T21:29:26.015Z,9.40
2023-03-21T21:31:52.731Z,9.32
2023-03-21T21:34:19.480Z,8.40
2023-03-21T21:36:46.125Z,8.96
2023-03-21T21:39:12.974Z,9.42
2023-03-21T21:41:39.925Z,9.59
2023-03-21T21:44:06.569Z,9.67
2023-03-21T21:46:33.296Z,10.03
2023-03-21T21:49:00.091Z,9.96
2023-03-21T21:51:26.703Z,9.77
2023-03-21T21:53:53.958Z,9.70
2023-03-21T21:56:20.568Z,9.01
2023-03-21T21:58:47.310Z,8.66
2023-03-21T22:01:13.982Z,8.50
2023-03-21T22:03:40.799Z,8.73
2023-03-21T22:06:09.331Z,9.02
2023-03-21T22:08:36.112Z,8.96
2023-03-21T22:11:04.088Z,8.84
2023-03-21T22:13:30.839Z,8.60
2023-03-21T22:15:58.075Z,8.46
2023-03-21T22:18:24.695Z,8.55
2023-03-21T22:20:51.332Z,8.72
2023-03-21T22:23:17.949Z,8.88
2023-03-21T22:25:49.855Z,8.97
2023-03-21T22:28:16.495Z,9.23
2023-03-21T22:30:43.453Z,9.10
2023-03-21T22:33:10.295Z,9.08
2023-03-21T22:35:37.546Z,9.04
2023-03-21T22:38:04.325Z,9.04
2023-03-21T22:40:31.067Z,9.08
2023-03-21T22:42:57.808Z,9.06
2023-03-21T22:45:24.458Z,8.99
2023-03-21T22:47:51.213Z,8.90
2023-03-21T22:50:17.884Z,8.81
2023-03-21T22:52:44.573Z,8.90
2023-03-21T22:55:11.171Z,8.90
2023-03-21T22:57:37.918Z,8.99
2023-03-21T23:00:07.754Z,9.04
2023-03-21T23:02:34.399Z,8.98
2023-03-21T23:05:00.971Z,9.01
2023-03-21T23:07:27.718Z,9.00
2023-03-21T23:09:56.361Z,8.98
2023-03-21T23:12:23.099Z,9.00
2023-03-21T23:14:49.757Z,8.84
2023-03-21T23:17:16.418Z,8.88
2023-03-21T23:19:43.250Z,8.92
2023-03-21T23:22:09.877Z,8.85
2023-03-21T23:24:36.492Z,8.68
2023-03-21T23:27:03.224Z,8.52
2023-03-21T23:29:30.062Z,8.54
2023-03-21T23:31:56.662Z,8.55
2023-03-21T23:34:23.439Z,8.51
2023-03-21T23:36:50.117Z,8.49
2023-03-21T23:39:16.740Z,8.52
2023-03-21T23:41:43.492Z,8.56
2023-03-21T23:44:10.125Z,8.51
2023-03-21T23:46:36.836Z,8.55
2023-03-21T23:49:03.643Z,8.62
2023-03-21T23:51:30.272Z,8.51
2023-03-21T23:53:56.965Z,8.51
2023-03-21T23:56:25.613Z,8.34
2023-03-21T23:58:52.565Z,8.33
